Time;durP1;ratioP1;P1;durP2;ratioP2;P2;SDS_P1;SDS_P2;PMS_P1;PMS_P2;Temp;Humidity;BMP_temperature;BMP_pressure;BME280_temperature;BME280_humidity;BME280_pressure;Samples;Min_cycle;Max_cycle;Signal;HPM_P1;HPM_P2
2022/10/04 00:00:27;;;;;;;1.45;0.73;;;;;;;;;;4993702;28;20052;-53
2022/10/04 00:03:06;;;;;;;1.13;0.70;;;;;;;;;;4994085;28;20054;-54
2022/10/04 00:05:35;;;;;;;1.35;0.77;;;;;;;;;;4994211;28;20054;-53
2022/10/04 00:08:06;;;;;;;1.17;0.90;;;;;;;;;;4993847;28;20050;-52
2022/10/04 00:10:34;;;;;;;1.60;0.70;;;;;;;;;;4993989;28;20252;-53
2022/10/04 00:13:17;;;;;;;1.38;0.95;;;;;;;;;;4994252;28;20058;-52
2022/10/04 00:15:51;;;;;;;2.13;1.02;;;;;;;;;;4993278;28;20058;-52
2022/10/04 00:18:23;;;;;;;2.58;1.05;;;;;;;;;;4993091;28;20456;-52
2022/10/04 00:21:16;;;;;;;1.65;0.90;;;;;;;;;;4993765;28;20057;-51
2022/10/04 00:24:06;;;;;;;2.33;1.02;;;;;;;;;;4990262;28;20062;-52
2022/10/04 00:27:05;;;;;;;7.28;1.48;;;;;;;;;;4987792;28;20060;-54
2022/10/04 00:29:42;;;;;;;4.88;1.60;;;;;;;;;;4993690;28;20487;-54
2022/10/04 00:32:31;;;;;;;4.15;1.80;;;;;;;;;;4993413;28;20047;-53
2022/10/04 00:35:02;;;;;;;4.25;1.70;;;;;;;;;;4992748;28;20108;-50
2022/10/04 00:38:03;;;;;;;3.33;1.27;;;;;;;;;;4985606;28;20085;-53
2022/10/04 00:40:33;;;;;;;3.85;1.42;;;;;;;;;;4990246;28;20082;-52
2022/10/04 00:43:09;;;;;;;2.85;1.10;;;;;;;;;;4992522;28;20054;-53
2022/10/04 00:45:41;;;;;;;2.90;1.17;;;;;;;;;;4992501;28;20655;-53
2022/10/04 00:48:38;;;;;;;2.95;0.88;;;;;;;;;;4993489;28;20054;-51
2022/10/04 00:51:26;;;;;;;1.98;0.90;;;;;;;;;;4992421;28;20076;-50
2022/10/04 00:57:12;;;;;;;1.65;0.90;;;;;;;;;;4992813;28;20054;-52
2022/10/04 00:59:49;;;;;;;2.30;1.13;;;;;;;;;;4993171;28;20054;-53
2022/10/04 01:02:31;;;;;;;2.42;1.30;;;;;;;;;;4993277;28;20050;-51
2022/10/04 01:05:00;;;;;;;2.55;0.90;;;;;;;;;;4993376;28;20058;-50
2022/10/04 01:07:31;;;;;;;2.47;1.10;;;;;;;;;;4992972;28;20054;-53
2022/10/04 01:10:01;;;;;;;1.73;1.10;;;;;;;;;;4993256;28;20050;-52
2022/10/04 01:12:45;;;;;;;4.05;1.10;;;;;;;;;;4992161;28;20064;-50
2022/10/04 01:15:16;;;;;;;2.08;1.23;;;;;;;;;;4991344;28;20535;-51
2022/10/04 01:18:03;;;;;;;2.60;1.10;;;;;;;;;;4985800;28;20069;-53
2022/10/04 01:20:53;;;;;;;3.58;1.20;;;;;;;;;;4990531;28;20471;-50
2022/10/04 01:23:40;;;;;;;3.47;1.27;;;;;;;;;;4992216;28;20058;-52
2022/10/04 01:26:22;;;;;;;3.13;1.10;;;;;;;;;;4993431;28;20050;-53
2022/10/04 01:28:51;;;;;;;4.63;1.23;;;;;;;;;;4991765;28;20061;-51
2022/10/04 01:31:19;;;;;;;3.47;1.30;;;;;;;;;;4991204;28;20050;-52
2022/10/04 01:33:48;;;;;;;2.28;1.20;;;;;;;;;;4990234;28;20058;-50
2022/10/04 01:36:15;;;;;;;3.15;1.30;;;;;;;;;;4992816;28;20344;-50
2022/10/04 01:38:55;;;;;;;2.38;1.00;;;;;;;;;;4975611;28;20061;-51
2022/10/04 01:41:32;;;;;;;3.30;1.08;;;;;;;;;;4992569;28;20484;-53
2022/10/04 01:44:01;;;;;;;1.35;0.68;;;;;;;;;;4992576;28;20078;-50
2022/10/04 01:46:31;;;;;;;2.47;1.08;;;;;;;;;;4993065;28;20100;-54
2022/10/04 01:49:01;;;;;;;6.55;1.80;;;;;;;;;;4979740;28;20059;-54
2022/10/04 01:51:38;;;;;;;2.67;0.98;;;;;;;;;;4989843;28;20055;-50
2022/10/04 01:54:19;;;;;;;3.05;1.08;;;;;;;;;;4991899;28;20054;-52
2022/10/04 01:56:49;;;;;;;1.90;1.20;;;;;;;;;;4992098;28;20058;-50
2022/10/04 01:59:23;;;;;;;1.48;0.93;;;;;;;;;;4992379;28;20065;-51
2022/10/04 02:01:55;;;;;;;2.13;0.90;;;;;;;;;;4992394;28;20054;-50
2022/10/04 02:04:27;;;;;;;3.63;1.20;;;;;;;;;;4992921;28;20062;-54
2022/10/04 02:06:58;;;;;;;1.88;0.93;;;;;;;;;;4992328;28;20137;-53
2022/10/04 02:09:32;;;;;;;1.40;0.80;;;;;;;;;;4992282;28;20043;-53
2022/10/04 02:12:03;;;;;;;1.15;0.77;;;;;;;;;;4992100;28;20427;-52
2022/10/04 02:14:32;;;;;;;1.33;0.90;;;;;;;;;;4992586;28;20058;-54
2022/10/04 02:17:01;;;;;;;3.60;1.00;;;;;;;;;;4992487;28;20146;-51
2022/10/04 02:19:43;;;;;;;2.00;0.98;;;;;;;;;;4992499;28;20058;-54
2022/10/04 02:22:13;;;;;;;1.90;1.02;;;;;;;;;;4988625;28;20065;-51
2022/10/04 02:24:47;;;;;;;2.15;1.08;;;;;;;;;;4995670;28;20390;-50
2022/10/04 02:27:14;;;;;;;2.03;1.08;;;;;;;;;;4996085;28;20042;-53
2022/10/04 02:35:10;;;;;;;4.45;1.27;;;;;;;;;;4995810;28;20057;-51
2022/10/04 02:37:38;;;;;;;2.42;1.10;;;;;;;;;;4995988;28;20105;-52
2022/10/04 02:40:09;;;;;;;2.92;1.10;;;;;;;;;;4995130;28;20054;-53
2022/10/04 02:42:46;;;;;;;2.08;0.90;;;;;;;;;;4994363;28;20066;-53
2022/10/04 02:45:19;;;;;;;3.25;1.38;;;;;;;;;;4995415;28;20077;-54
2022/10/04 02:47:55;;;;;;;1.48;1.05;;;;;;;;;;4994347;28;20550;-51
2022/10/04 02:50:28;;;;;;;3.20;1.17;;;;;;;;;;4991716;28;20655;-51
2022/10/04 02:52:58;;;;;;;3.13;0.95;;;;;;;;;;4994697;28;20509;-51
2022/10/04 02:55:30;;;;;;;5.00;1.17;;;;;;;;;;4995554;28;20120;-51
2022/10/04 02:58:00;;;;;;;2.97;1.42;;;;;;;;;;4994973;28;20058;-50
2022/10/04 03:00:27;;;;;;;3.10;1.40;;;;;;;;;;4995306;28;20129;-52
2022/10/04 03:03:14;;;;;;;2.50;1.30;;;;;;;;;;4995484;28;20054;-52
2022/10/04 03:05:41;;;;;;;1.75;1.10;;;;;;;;;;4995409;28;20058;-53
2022/10/04 03:08:11;;;;;;;3.25;1.20;;;;;;;;;;5001228;28;20053;-50
2022/10/04 03:10:41;;;;;;;4.57;1.10;;;;;;;;;;5002330;28;20085;-53
2022/10/04 03:13:12;;;;;;;3.00;1.52;;;;;;;;;;4994658;28;20054;-51
2022/10/04 03:15:38;;;;;;;2.03;1.20;;;;;;;;;;4995226;28;20054;-51
2022/10/04 03:18:09;;;;;;;3.08;1.35;;;;;;;;;;4993709;28;20086;-52
2022/10/04 03:20:40;;;;;;;2.33;1.40;;;;;;;;;;4995190;28;20081;-50
2022/10/04 03:23:09;;;;;;;2.38;1.30;;;;;;;;;;4994745;28;20050;-54
2022/10/04 03:25:54;;;;;;;2.13;1.20;;;;;;;;;;4994236;28;20061;-53
2022/10/04 03:28:23;;;;;;;2.83;1.10;;;;;;;;;;4982705;28;20046;-53
2022/10/04 03:30:53;;;;;;;4.68;1.50;;;;;;;;;;5008055;28;20729;-50
2022/10/04 03:33:25;;;;;;;3.67;1.40;;;;;;;;;;4981002;28;20077;-51
2022/10/04 03:35:54;;;;;;;4.38;1.40;;;;;;;;;;4990771;28;20058;-50
2022/10/04 03:38:25;;;;;;;1.70;1.02;;;;;;;;;;4994271;28;20049;-50
2022/10/04 03:40:59;;;;;;;1.60;0.90;;;;;;;;;;4994513;28;20050;-53
2022/10/04 03:43:30;;;;;;;2.60;1.40;;;;;;;;;;5007539;28;20470;-50
2022/10/04 03:45:59;;;;;;;2.78;1.17;;;;;;;;;;4994781;28;20050;-51
2022/10/04 03:48:33;;;;;;;3.35;1.30;;;;;;;;;;4993958;28;20046;-50
2022/10/04 03:51:02;;;;;;;2.53;1.30;;;;;;;;;;4994746;28;20049;-52
2022/10/04 03:53:41;;;;;;;2.67;1.45;;;;;;;;;;4987362;28;20061;-51
2022/10/04 03:56:17;;;;;;;2.35;0.98;;;;;;;;;;4994035;28;20061;-51
2022/10/04 03:58:47;;;;;;;2.28;1.13;;;;;;;;;;4993891;28;20364;-51
2022/10/04 04:01:22;;;;;;;2.67;1.30;;;;;;;;;;4994003;28;20152;-53
2022/10/04 04:03:59;;;;;;;5.10;1.40;;;;;;;;;;4994266;28;20077;-50
2022/10/04 04:06:30;;;;;;;2.15;1.02;;;;;;;;;;4994237;28;20475;-51
2022/10/04 04:09:01;;;;;;;2.20;1.30;;;;;;;;;;4994369;28;20077;-53
2022/10/04 04:11:33;;;;;;;1.77;0.98;;;;;;;;;;5005954;28;20514;-50
2022/10/04 04:14:05;;;;;;;3.22;1.20;;;;;;;;;;4994486;28;20061;-53
2022/10/04 04:16:36;;;;;;;2.72;1.15;;;;;;;;;;4998960;28;20041;-52
2022/10/04 04:19:11;;;;;;;3.53;1.30;;;;;;;;;;5001089;28;20137;-53
2022/10/04 04:21:41;;;;;;;1.92;1.10;;;;;;;;;;4993254;28;20057;-50
2022/10/04 04:24:16;;;;;;;3.33;1.05;;;;;;;;;;4993610;28;20061;-54
2022/10/04 04:26:58;;;;;;;4.75;1.65;;;;;;;;;;4994249;28;20058;-52
2022/10/04 04:29:30;;;;;;;2.63;1.45;;;;;;;;;;4993529;28;20058;-51
2022/10/04 04:32:00;;;;;;;2.03;1.35;;;;;;;;;;4993462;28;20050;-51
2022/10/04 04:34:37;;;;;;;2.28;1.20;;;;;;;;;;4992937;28;20066;-51
2022/10/04 04:37:07;;;;;;;2.72;1.35;;;;;;;;;;4993897;28;20050;-53
2022/10/04 04:39:33;;;;;;;2.30;1.10;;;;;;;;;;4992965;28;20419;-53
2022/10/04 04:42:17;;;;;;;2.83;1.10;;;;;;;;;;4992909;28;20061;-52
2022/10/04 04:44:49;;;;;;;4.28;1.40;;;;;;;;;;4991967;28;20053;-52
2022/10/04 04:47:24;;;;;;;2.13;1.17;;;;;;;;;;4993511;28;20045;-54
2022/10/04 04:49:54;;;;;;;2.67;0.95;;;;;;;;;;4992588;28;20086;-51
2022/10/04 04:52:27;;;;;;;3.63;1.27;;;;;;;;;;4993575;28;20042;-51
2022/10/04 04:54:58;;;;;;;2.80;1.27;;;;;;;;;;4992926;28;20062;-50
2022/10/04 04:57:41;;;;;;;2.65;1.40;;;;;;;;;;4993262;28;20050;-54
2022/10/04 05:00:18;;;;;;;3.40;1.20;;;;;;;;;;4992877;28;20069;-52
2022/10/04 05:02:57;;;;;;;2.13;1.23;;;;;;;;;;4993149;28;20062;-50
2022/10/04 05:05:33;;;;;;;4.70;1.30;;;;;;;;;;4993614;28;20054;-54
2022/10/04 05:08:04;;;;;;;2.50;1.30;;;;;;;;;;5006185;28;20643;-54
2022/10/04 05:10:40;;;;;;;4.20;1.20;;;;;;;;;;4993347;28;20046;-53
2022/10/04 05:13:10;;;;;;;5.93;1.30;;;;;;;;;;4997506;28;20057;-50
2022/10/04 05:15:39;;;;;;;3.80;1.08;;;;;;;;;;5000480;28;20049;-50
2022/10/04 05:18:16;;;;;;;3.17;1.10;;;;;;;;;;4992878;28;20050;-50
2022/10/04 05:20:54;;;;;;;3.63;1.20;;;;;;;;;;4993226;28;20133;-50
2022/10/04 05:23:23;;;;;;;2.00;1.00;;;;;;;;;;4993011;28;20046;-50
2022/10/04 05:25:53;;;;;;;3.15;1.25;;;;;;;;;;4993213;28;20053;-50
2022/10/04 05:28:26;;;;;;;4.32;1.30;;;;;;;;;;4999689;28;20049;-53
2022/10/04 05:31:10;;;;;;;3.75;1.27;;;;;;;;;;4998380;28;20468;-50
2022/10/04 05:36:28;;;;;;;2.67;1.40;;;;;;;;;;4998591;28;20061;-50
2022/10/04 05:39:04;;;;;;;4.05;1.45;;;;;;;;;;4992221;28;20200;-51
2022/10/04 05:41:32;;;;;;;3.28;1.45;;;;;;;;;;4992562;28;20046;-50
2022/10/04 05:44:20;;;;;;;2.97;1.10;;;;;;;;;;4993051;28;20081;-49
2022/10/04 05:46:55;;;;;;;3.60;1.50;;;;;;;;;;4992734;28;20062;-54
2022/10/04 05:49:25;;;;;;;4.88;1.30;;;;;;;;;;4992926;28;20061;-51
2022/10/04 05:51:56;;;;;;;2.10;1.35;;;;;;;;;;4992806;28;20046;-51
2022/10/04 05:54:25;;;;;;;2.13;1.25;;;;;;;;;;4992951;28;20058;-50
2022/10/04 05:57:11;;;;;;;2.38;1.25;;;;;;;;;;4992823;28;20046;-54
2022/10/04 06:00:13;;;;;;;3.50;1.30;;;;;;;;;;4995986;28;20065;-51
2022/10/04 06:03:10;;;;;;;2.85;1.00;;;;;;;;;;4992374;28;20050;-49
2022/10/04 06:05:47;;;;;;;4.10;1.83;;;;;;;;;;4986865;28;20062;-49
2022/10/04 06:08:23;;;;;;;2.70;1.13;;;;;;;;;;4988060;28;20082;-49
2022/10/04 06:10:54;;;;;;;;;;;;;;;;;;4996079;28;20051;-48
2022/10/04 06:13:40;;;;;;;2.58;1.23;;;;;;;;;;4995032;28;20001;-49
2022/10/04 06:16:24;;;;;;;2.35;1.30;;;;;;;;;;4995003;28;20046;-49
2022/10/04 06:19:08;;;;;;;4.63;1.20;;;;;;;;;;4990146;28;20065;-48
2022/10/04 06:21:44;;;;;;;2.42;1.30;;;;;;;;;;4994651;28;20136;-50
2022/10/04 06:24:16;;;;;;;4.72;1.52;;;;;;;;;;4995462;28;20553;-49
2022/10/04 06:26:45;;;;;;;3.65;1.30;;;;;;;;;;4997909;28;20368;-49
2022/10/04 06:29:23;;;;;;;1.80;1.02;;;;;;;;;;4993162;28;20092;-46
2022/10/04 06:32:10;;;;;;;3.75;1.55;;;;;;;;;;4994568;28;20054;-49
2022/10/04 06:34:57;;;;;;;3.05;1.63;;;;;;;;;;4989397;28;20120;-49
2022/10/04 06:37:45;;;;;;;2.30;1.65;;;;;;;;;;4992044;28;20057;-49
2022/10/04 06:40:46;;;;;;;2.70;1.27;;;;;;;;;;4994916;28;20667;-49
2022/10/04 06:43:20;;;;;;;2.72;1.50;;;;;;;;;;4987018;28;20052;-48
2022/10/04 06:45:56;;;;;;;2.45;1.20;;;;;;;;;;4994921;28;20475;-48
2022/10/04 06:48:42;;;;;;;3.90;1.35;;;;;;;;;;4989927;28;20507;-48
2022/10/04 06:51:18;;;;;;;2.67;1.30;;;;;;;;;;4992286;28;20046;-48
2022/10/04 06:54:03;;;;;;;2.53;1.65;;;;;;;;;;4994642;28;20058;-47
2022/10/04 06:56:48;;;;;;;2.63;1.50;;;;;;;;;;4991126;28;20051;-47
2022/10/04 06:59:25;;;;;;;2.30;1.17;;;;;;;;;;4991059;28;20050;-50
2022/10/04 07:01:56;;;;;;;3.38;1.60;;;;;;;;;;4994545;28;20050;-47
2022/10/04 07:04:37;;;;;;;3.90;1.45;;;;;;;;;;4987636;28;20106;-51
2022/10/04 07:07:34;;;;;;;2.53;1.15;;;;;;;;;;4988270;28;20054;-47
2022/10/04 07:10:22;;;;;;;2.38;1.20;;;;;;;;;;4992956;28;20438;-48
2022/10/04 07:13:08;;;;;;;2.80;1.25;;;;;;;;;;4994334;28;20131;-50
2022/10/04 07:15:43;;;;;;;4.57;1.40;;;;;;;;;;4994873;28;20077;-48
2022/10/04 07:18:14;;;;;;;2.78;1.63;;;;;;;;;;4994278;28;20065;-49
2022/10/04 07:20:43;;;;;;;4.10;1.30;;;;;;;;;;4993695;28;20058;-48
2022/10/04 07:23:14;;;;;;;3.47;1.63;;;;;;;;;;4994732;28;20047;-48
2022/10/04 07:25:45;;;;;;;3.78;1.40;;;;;;;;;;4994279;28;20070;-49
2022/10/04 07:31:11;;;;;;;2.80;1.40;;;;;;;;;;4988302;28;20399;-50
2022/10/04 07:34:06;;;;;;;2.63;1.40;;;;;;;;;;4994555;28;20076;-49
2022/10/04 07:36:40;;;;;;;1.60;1.05;;;;;;;;;;4978049;28;20050;-49
2022/10/04 07:39:21;;;;;;;5.43;1.30;;;;;;;;;;4987814;28;20081;-53
2022/10/04 07:42:00;;;;;;;2.30;1.00;;;;;;;;;;4990035;28;20060;-50
2022/10/04 07:44:41;;;;;;;2.08;1.20;;;;;;;;;;4989903;28;20050;-49
2022/10/04 07:47:16;;;;;;;4.20;1.60;;;;;;;;;;4985066;28;20130;-51
2022/10/04 07:49:47;;;;;;;2.00;0.98;;;;;;;;;;4993864;28;20073;-50
2022/10/04 07:52:32;;;;;;;2.08;1.00;;;;;;;;;;4993189;28;20418;-48
2022/10/04 07:55:11;;;;;;;2.65;1.23;;;;;;;;;;4992621;28;20117;-47
2022/10/04 07:57:43;;;;;;;1.30;0.90;;;;;;;;;;4993899;28;20058;-49
2022/10/04 08:00:29;;;;;;;1.45;1.10;;;;;;;;;;4989350;28;20060;-48
2022/10/04 08:03:12;;;;;;;1.50;1.10;;;;;;;;;;4985254;28;20046;-49
2022/10/04 08:05:48;;;;;;;1.50;0.88;;;;;;;;;;4989530;28;20062;-49
2022/10/04 08:08:23;;;;;;;3.60;1.38;;;;;;;;;;4993596;28;20376;-48
2022/10/04 08:10:55;;;;;;;4.03;1.40;;;;;;;;;;4992592;28;20439;-47
2022/10/04 08:13:26;;;;;;;10.68;1.75;;;;;;;;;;4991797;28;20042;-48
2022/10/04 08:16:15;;;;;;;2.35;1.30;;;;;;;;;;4992929;28;20403;-47
2022/10/04 08:18:52;;;;;;;2.13;0.90;;;;;;;;;;4991459;28;20056;-47
2022/10/04 08:21:25;;;;;;;7.45;1.63;;;;;;;;;;4986875;28;20846;-48
2022/10/04 08:24:01;;;;;;;3.38;1.20;;;;;;;;;;4990058;28;20057;-52
2022/10/04 08:26:40;;;;;;;2.50;1.23;;;;;;;;;;4992637;28;20053;-49
2022/10/04 08:32:32;;;;;;;4.00;0.95;;;;;;;;;;4984318;28;20164;-49
2022/10/04 08:35:15;;;;;;;5.38;1.52;;;;;;;;;;4984946;28;20137;-50
2022/10/04 08:38:01;;;;;;;3.47;1.10;;;;;;;;;;4987801;28;20109;-51
2022/10/04 08:40:49;;;;;;;2.90;1.30;;;;;;;;;;4990386;28;20535;-48
2022/10/04 08:43:28;;;;;;;3.30;1.27;;;;;;;;;;4993194;28;20047;-49
2022/10/04 08:46:16;;;;;;;2.03;0.75;;;;;;;;;;4993123;28;20046;-50
2022/10/04 08:49:10;;;;;;;3.75;0.90;;;;;;;;;;4983168;28;20061;-48
2022/10/04 08:52:07;;;;;;;4.63;0.90;;;;;;;;;;4991111;28;20058;-48
2022/10/04 08:54:55;;;;;;;1.88;1.00;;;;;;;;;;4991094;28;20054;-48
2022/10/04 08:57:42;;;;;;;1.55;0.73;;;;;;;;;;4960896;28;20455;-48
2022/10/04 09:00:21;;;;;;;3.55;0.82;;;;;;;;;;4989479;28;20148;-49
2022/10/04 09:03:08;;;;;;;2.15;0.82;;;;;;;;;;4992118;28;20051;-48
2022/10/04 09:05:50;;;;;;;2.95;1.10;;;;;;;;;;4985996;28;20125;-48
2022/10/04 09:08:45;;;;;;;1.38;0.73;;;;;;;;;;4990454;28;20057;-49
2022/10/04 09:11:41;;;;;;;1.77;0.57;;;;;;;;;;4990861;28;20364;-50
2022/10/04 09:14:35;;;;;;;2.15;0.75;;;;;;;;;;4989215;28;20774;-49
2022/10/04 09:17:21;;;;;;;2.20;0.70;;;;;;;;;;4989022;28;20125;-48
2022/10/04 09:19:56;;;;;;;1.33;0.60;;;;;;;;;;4990626;28;20061;-47
2022/10/04 09:22:34;;;;;;;4.30;0.70;;;;;;;;;;4983974;28;20546;-48
2022/10/04 09:25:25;;;;;;;1.40;0.88;;;;;;;;;;4988651;28;20058;-46
2022/10/04 09:28:14;;;;;;;2.75;0.55;;;;;;;;;;4990129;28;20473;-51
2022/10/04 09:30:50;;;;;;;0.88;0.60;;;;;;;;;;4993659;28;20054;-50
2022/10/04 09:33:41;;;;;;;1.17;0.50;;;;;;;;;;4996433;28;20060;-48
2022/10/04 09:36:27;;;;;;;1.95;0.40;;;;;;;;;;4996085;28;20404;-49
2022/10/04 09:39:27;;;;;;;2.20;0.50;;;;;;;;;;4991874;28;20076;-49
2022/10/04 09:42:15;;;;;;;1.88;0.40;;;;;;;;;;4928795;29;20155;-48
2022/10/04 09:45:05;;;;;;;1.98;0.43;;;;;;;;;;4922768;29;20060;-49
2022/10/04 09:47:44;;;;;;;5.90;1.00;;;;;;;;;;4931856;29;20055;-47
2022/10/04 09:50:50;;;;;;;2.65;0.57;;;;;;;;;;4935689;29;20055;-48
2022/10/04 09:53:29;;;;;;;13.75;1.70;;;;;;;;;;4895273;29;20048;-48
2022/10/04 09:56:08;;;;;;;2.90;0.80;;;;;;;;;;4902882;29;20401;-48
2022/10/04 09:58:52;;;;;;;1.00;0.40;;;;;;;;;;4926910;29;20056;-48
2022/10/04 10:01:24;;;;;;;0.90;0.47;;;;;;;;;;4936452;29;20055;-47
2022/10/04 10:04:02;;;;;;;1.95;0.40;;;;;;;;;;4949218;28;20144;-48
2022/10/04 10:06:47;;;;;;;0.75;0.50;;;;;;;;;;4993723;28;20372;-50
2022/10/04 10:13:38;;;;;;;0.88;0.30;;;;;;;;;;4993058;28;20054;-52
2022/10/04 10:15:44;;;;;;;0.63;0.33;;;;;;;;;;4995356;28;20061;-49
2022/10/04 10:18:28;;;;;;;2.20;0.60;;;;;;;;;;4993672;28;20058;-49
2022/10/04 10:21:11;;;;;;;1.98;0.40;;;;;;;;;;4995314;28;20141;-51
2022/10/04 10:24:02;;;;;;;4.88;0.73;;;;;;;;;;4989477;28;20043;-50
2022/10/04 10:26:44;;;;;;;3.47;0.47;;;;;;;;;;4995252;28;20050;-48
2022/10/04 10:29:28;;;;;;;1.98;0.52;;;;;;;;;;4992393;28;20503;-49
2022/10/04 10:32:30;;;;;;;1.27;0.77;;;;;;;;;;4995831;28;20058;-49
2022/10/04 10:35:15;;;;;;;1.63;0.47;;;;;;;;;;4995294;28;20483;-47
2022/10/04 10:37:52;;;;;;;1.92;0.40;;;;;;;;;;4994924;28;20060;-50
2022/10/04 10:40:45;;;;;;;5.30;0.65;;;;;;;;;;4994858;28;20451;-49
2022/10/04 10:43:35;;;;;;;3.30;0.50;;;;;;;;;;4992303;28;20050;-48
2022/10/04 10:46:22;;;;;;;0.68;0.20;;;;;;;;;;4993696;28;20152;-47
2022/10/04 10:49:03;;;;;;;1.20;0.35;;;;;;;;;;4991204;28;20073;-50
2022/10/04 10:51:54;;;;;;;1.98;0.40;;;;;;;;;;4995405;28;20130;-47
2022/10/04 10:54:34;;;;;;;1.23;0.30;;;;;;;;;;4993247;28;20104;-48
2022/10/04 10:57:09;;;;;;;2.20;0.35;;;;;;;;;;4994721;28;20046;-46
2022/10/04 11:00:19;;;;;;;0.38;0.20;;;;;;;;;;4987546;28;20061;-49
2022/10/04 11:03:19;;;;;;;2.30;0.30;;;;;;;;;;4915360;29;20127;-46
2022/10/04 11:06:05;;;;;;;1.27;0.28;;;;;;;;;;4989474;28;20061;-48
2022/10/04 11:08:47;;;;;;;1.88;0.43;;;;;;;;;;4989176;28;20371;-48
2022/10/04 11:11:24;;;;;;;1.45;0.40;;;;;;;;;;4994238;28;20466;-47
2022/10/04 11:14:15;;;;;;;2.63;0.90;;;;;;;;;;4995001;28;20050;-51
2022/10/04 11:17:05;;;;;;;1.85;0.40;;;;;;;;;;4986210;28;20077;-49
2022/10/04 11:19:52;;;;;;;1.67;0.57;;;;;;;;;;4979288;28;20054;-46
2022/10/04 11:22:35;;;;;;;7.22;0.50;;;;;;;;;;4994706;28;20050;-48
2022/10/04 11:25:25;;;;;;;1.20;0.30;;;;;;;;;;4998055;28;20171;-51
2022/10/04 11:28:01;;;;;;;0.43;0.22;;;;;;;;;;4991399;28;20050;-48
2022/10/04 11:30:39;;;;;;;3.45;0.50;;;;;;;;;;4993795;28;20062;-48
2022/10/04 11:33:25;;;;;;;0.88;0.50;;;;;;;;;;4993388;28;20057;-48
2022/10/04 11:36:12;;;;;;;3.45;0.57;;;;;;;;;;4993757;28;20054;-48
2022/10/04 11:39:06;;;;;;;2.38;0.40;;;;;;;;;;4987868;28;20059;-47
2022/10/04 11:41:46;;;;;;;4.53;0.55;;;;;;;;;;4987873;28;20072;-47
2022/10/04 11:44:34;;;;;;;0.95;0.30;;;;;;;;;;4989790;28;20043;-47
2022/10/04 11:47:15;;;;;;;4.97;0.60;;;;;;;;;;4990595;28;20051;-46
2022/10/04 11:49:57;;;;;;;4.05;0.60;;;;;;;;;;4988314;28;20472;-48
2022/10/04 11:53:03;;;;;;;2.60;0.40;;;;;;;;;;4983387;28;20047;-47
2022/10/04 11:56:03;;;;;;;1.08;0.30;;;;;;;;;;4991184;28;20065;-47
2022/10/04 11:58:45;;;;;;;4.93;0.32;;;;;;;;;;4988170;28;20046;-47
2022/10/04 12:01:32;;;;;;;1.90;0.60;;;;;;;;;;4993063;28;20045;-47
2022/10/04 12:04:24;;;;;;;2.58;0.40;;;;;;;;;;4993561;28;20050;-45
2022/10/04 12:07:05;;;;;;;1.63;0.38;;;;;;;;;;4973879;28;20137;-48
2022/10/04 12:09:39;;;;;;;1.38;0.20;;;;;;;;;;4991636;28;20060;-48
2022/10/04 12:12:39;;;;;;;3.05;0.60;;;;;;;;;;4985773;28;20050;-51
2022/10/04 12:15:26;;;;;;;5.13;0.30;;;;;;;;;;4991499;28;20105;-48
2022/10/04 12:18:13;;;;;;;2.72;0.75;;;;;;;;;;4993502;28;20058;-48
2022/10/04 12:20:52;;;;;;;0.93;0.38;;;;;;;;;;4993127;28;20053;-47
2022/10/04 12:23:46;;;;;;;3.58;0.35;;;;;;;;;;4993088;28;20203;-47
2022/10/04 12:26:20;;;;;;;2.05;0.40;;;;;;;;;;4992961;28;20438;-51
2022/10/04 12:29:03;;;;;;;1.38;0.30;;;;;;;;;;4993747;28;20050;-52
2022/10/04 12:31:34;;;;;;;1.33;0.30;;;;;;;;;;4989873;28;20124;-50
2022/10/04 12:34:14;;;;;;;0.65;0.20;;;;;;;;;;4993028;28;20061;-47
2022/10/04 12:36:59;;;;;;;3.90;0.35;;;;;;;;;;4992701;28;20066;-50
2022/10/04 12:39:33;;;;;;;2.53;0.30;;;;;;;;;;4990426;28;20487;-48
2022/10/04 12:42:11;;;;;;;0.80;0.30;;;;;;;;;;4990085;28;20050;-49
2022/10/04 12:44:49;;;;;;;1.48;0.40;;;;;;;;;;4992303;28;20050;-51
2022/10/04 12:47:34;;;;;;;1.40;0.50;;;;;;;;;;4991808;28;20477;-49
2022/10/04 12:50:07;;;;;;;5.05;0.57;;;;;;;;;;4992103;28;20160;-49
2022/10/04 12:52:44;;;;;;;1.23;0.50;;;;;;;;;;4993103;28;20047;-51
2022/10/04 12:55:26;;;;;;;1.23;0.40;;;;;;;;;;4992975;28;20132;-49
2022/10/04 12:58:01;;;;;;;1.35;0.40;;;;;;;;;;4986737;28;20063;-48
2022/10/04 13:00:31;;;;;;;2.97;0.52;;;;;;;;;;4992481;28;20058;-49
2022/10/04 13:03:10;;;;;;;2.63;0.63;;;;;;;;;;4983575;28;20048;-48
2022/10/04 13:05:43;;;;;;;1.05;0.40;;;;;;;;;;4986278;28;20047;-49
2022/10/04 13:08:24;;;;;;;0.75;0.43;;;;;;;;;;4982395;28;20048;-48
2022/10/04 13:11:00;;;;;;;2.63;0.43;;;;;;;;;;4989865;28;20050;-47
2022/10/04 13:13:40;;;;;;;3.00;0.50;;;;;;;;;;4992589;28;20121;-49
2022/10/04 13:16:27;;;;;;;3.25;0.60;;;;;;;;;;4985834;28;20054;-49
2022/10/04 13:18:58;;;;;;;0.82;0.40;;;;;;;;;;4987428;28;20391;-47
2022/10/04 13:21:46;;;;;;;4.20;0.60;;;;;;;;;;4988180;28;20050;-46
2022/10/04 13:24:21;;;;;;;3.00;0.50;;;;;;;;;;4989950;28;20067;-49
2022/10/04 13:26:55;;;;;;;8.20;0.63;;;;;;;;;;4992458;28;20402;-47
2022/10/04 13:29:23;;;;;;;2.45;0.50;;;;;;;;;;4990345;28;20117;-48
2022/10/04 13:31:57;;;;;;;1.70;0.50;;;;;;;;;;4979727;28;20093;-47
2022/10/04 13:34:41;;;;;;;0.70;0.40;;;;;;;;;;4990035;28;20062;-47
2022/10/04 13:37:25;;;;;;;1.17;0.30;;;;;;;;;;4984259;28;20050;-49
2022/10/04 13:40:12;;;;;;;1.73;0.30;;;;;;;;;;4977751;28;20046;-49
2022/10/04 13:42:54;;;;;;;3.70;0.43;;;;;;;;;;4938146;28;20161;-50
2022/10/04 13:45:40;;;;;;;2.10;0.30;;;;;;;;;;4991299;28;20050;-47
2022/10/04 13:48:19;;;;;;;0.75;0.38;;;;;;;;;;4992307;28;20058;-51
2022/10/04 13:50:54;;;;;;;1.75;0.30;;;;;;;;;;4984145;28;20050;-50
2022/10/04 13:56:38;;;;;;;1.15;0.38;;;;;;;;;;4990091;28;20109;-48
2022/10/04 13:59:13;;;;;;;1.33;0.43;;;;;;;;;;4988874;28;20062;-49
2022/10/04 14:02:12;;;;;;;0.93;0.50;;;;;;;;;;4981971;28;20138;-49
2022/10/04 14:05:02;;;;;;;5.30;0.40;;;;;;;;;;4992101;28;20057;-48
2022/10/04 14:07:38;;;;;;;3.20;0.50;;;;;;;;;;4992159;28;20050;-48
2022/10/04 14:10:21;;;;;;;8.85;0.73;;;;;;;;;;4992623;28;20065;-48
2022/10/04 14:13:04;;;;;;;2.40;0.40;;;;;;;;;;4978072;28;20070;-50
2022/10/04 14:15:52;;;;;;;1.30;0.30;;;;;;;;;;4987179;28;20059;-48
2022/10/04 14:18:42;;;;;;;1.75;0.40;;;;;;;;;;4984740;28;20057;-50
2022/10/04 14:21:23;;;;;;;0.32;0.25;;;;;;;;;;4971737;28;20094;-49
2022/10/04 14:24:04;;;;;;;0.75;0.40;;;;;;;;;;4995029;28;20054;-50
2022/10/04 14:27:01;;;;;;;2.47;0.57;;;;;;;;;;4993878;28;20489;-48
2022/10/04 14:29:36;;;;;;;6.90;0.50;;;;;;;;;;4980550;28;20050;-48
2022/10/04 14:32:27;;;;;;;1.83;0.50;;;;;;;;;;4986076;28;20070;-47
2022/10/04 14:34:59;;;;;;;1.52;0.35;;;;;;;;;;4990174;28;20074;-47
2022/10/04 14:37:58;;;;;;;4.43;0.50;;;;;;;;;;4993912;28;20086;-49
2022/10/04 14:40:45;;;;;;;3.90;0.70;;;;;;;;;;4912768;29;20054;-49
2022/10/04 14:43:20;;;;;;;2.15;0.70;;;;;;;;;;4929988;28;20054;-51
2022/10/04 14:45:56;;;;;;;1.70;0.45;;;;;;;;;;4989615;28;20605;-51
2022/10/04 14:48:37;;;;;;;0.68;0.38;;;;;;;;;;4985614;28;20051;-51
2022/10/04 14:51:25;;;;;;;0.98;0.32;;;;;;;;;;4970234;28;20054;-48
2022/10/04 14:54:00;;;;;;;1.27;0.47;;;;;;;;;;4967305;28;20051;-51
2022/10/04 14:56:48;;;;;;;2.22;0.50;;;;;;;;;;4984893;28;20057;-48
2022/10/04 14:59:34;;;;;;;1.17;0.50;;;;;;;;;;4984458;28;20042;-51
2022/10/04 15:02:30;;;;;;;1.30;0.50;;;;;;;;;;4977736;28;20046;-49
2022/10/04 15:04:58;;;;;;;;;;;;;;;;;;4982115;28;20121;-48
2022/10/04 15:07:33;;;;;;;0.75;0.47;;;;;;;;;;4982937;28;20409;-51
2022/10/04 15:10:08;;;;;;;2.33;0.40;;;;;;;;;;4983536;28;20051;-49
2022/10/04 15:12:53;;;;;;;1.35;0.40;;;;;;;;;;4987088;28;20046;-51
2022/10/04 15:15:39;;;;;;;3.13;0.60;;;;;;;;;;4977225;28;20046;-48
2022/10/04 15:18:25;;;;;;;1.60;0.50;;;;;;;;;;4992302;28;20100;-52
2022/10/04 15:21:00;;;;;;;0.75;0.40;;;;;;;;;;4977743;28;20514;-48
2022/10/04 15:23:37;;;;;;;1.27;0.50;;;;;;;;;;4983458;28;20042;-48
2022/10/04 15:26:37;;;;;;;1.02;0.40;;;;;;;;;;4990327;28;20051;-48
2022/10/04 15:29:13;;;;;;;1.23;0.40;;;;;;;;;;4988340;28;20058;-48
2022/10/04 15:31:53;;;;;;;1.90;0.50;;;;;;;;;;4993633;28;20510;-48
2022/10/04 15:34:32;;;;;;;2.40;0.47;;;;;;;;;;4991580;28;20053;-49
2022/10/04 15:37:08;;;;;;;2.63;0.55;;;;;;;;;;4985374;28;20109;-50
2022/10/04 15:39:57;;;;;;;0.55;0.40;;;;;;;;;;4979424;28;20062;-49
2022/10/04 15:42:28;;;;;;;1.95;0.60;;;;;;;;;;4975288;28;20440;-48
2022/10/04 15:45:16;;;;;;;1.55;0.50;;;;;;;;;;4988120;28;20054;-49
2022/10/04 15:47:55;;;;;;;1.08;0.40;;;;;;;;;;4987019;28;20491;-48
2022/10/04 15:50:44;;;;;;;0.65;0.35;;;;;;;;;;4994410;28;20112;-48
2022/10/04 15:53:23;;;;;;;3.30;0.40;;;;;;;;;;4993105;28;20082;-50
2022/10/04 15:56:04;;;;;;;1.55;0.50;;;;;;;;;;4975203;28;20058;-51
2022/10/04 15:58:47;;;;;;;4.20;0.73;;;;;;;;;;4988454;28;20499;-51
2022/10/04 16:01:25;;;;;;;9.43;1.25;;;;;;;;;;4988511;28;20055;-52
2022/10/04 16:04:17;;;;;;;9.80;1.13;;;;;;;;;;4988423;28;20450;-49
2022/10/04 16:07:03;;;;;;;1.73;0.70;;;;;;;;;;4991771;28;20498;-49
2022/10/04 16:09:36;;;;;;;3.08;1.13;;;;;;;;;;4985702;28;20069;-48
2022/10/04 16:12:07;;;;;;;8.48;1.52;;;;;;;;;;4984408;28;20061;-49
2022/10/04 16:14:57;;;;;;;1.73;1.10;;;;;;;;;;4990379;28;20050;-48
2022/10/04 16:17:43;;;;;;;3.53;0.88;;;;;;;;;;4985966;28;20546;-49
2022/10/04 16:20:37;;;;;;;4.38;0.80;;;;;;;;;;4979226;28;20054;-50